sensor_id;sensor_type;location;lat;lon;timestamp;pressure;altitude;pressure_sealevel;temperature;humidity
53858;BME280;39763;51.188;6.690;2023-02-26T00:01:31;101326.25;;;4.15;55.59
53858;BME280;39763;51.188;6.690;2023-02-26T00:03:04;101323.66;;;4.15;55.14
53858;BME280;39763;51.188;6.690;2023-02-26T00:04:36;101326.25;;;4.21;55.50
53858;BME280;39763;51.188;6.690;2023-02-26T00:06:08;101335.81;;;4.25;55.37
53858;BME280;39763;51.188;6.690;2023-02-26T00:07:39;101324.56;;;4.29;55.41
53858;BME280;39763;51.188;6.690;2023-02-26T00:09:11;101334.94;;;4.31;55.08
53858;BME280;39763;51.188;6.690;2023-02-26T00:10:43;101340.13;;;4.31;54.95
53858;BME280;39763;51.188;6.690;2023-02-26T00:12:15;101338.44;;;4.30;55.15
53858;BME280;39763;51.188;6.690;2023-02-26T00:13:49;101341.03;;;4.28;55.42
53858;BME280;39763;51.188;6.690;2023-02-26T00:15:22;101344.50;;;4.30;55.62
53858;BME280;39763;51.188;6.690;2023-02-26T00:16:56;101336.69;;;4.30;55.49
53858;BME280;39763;51.188;6.690;2023-02-26T00:18:38;101336.69;;;4.35;55.05
53858;BME280;39763;51.188;6.690;2023-02-26T00:20:10;101334.09;;;4.36;55.15
53858;BME280;39763;51.188;6.690;2023-02-26T00:21:42;101335.81;;;4.34;55.58
53858;BME280;39763;51.188;6.690;2023-02-26T00:23:14;101345.34;;;4.31;55.39
53858;BME280;39763;51.188;6.690;2023-02-26T00:24:46;101342.75;;;4.34;55.67
53858;BME280;39763;51.188;6.690;2023-02-26T00:26:19;101346.22;;;4.33;55.74
53858;BME280;39763;51.188;6.690;2023-02-26T00:27:53;101353.16;;;4.29;55.91
53858;BME280;39763;51.188;6.690;2023-02-26T00:29:25;101354.00;;;4.31;55.98
53858;BME280;39763;51.188;6.690;2023-02-26T00:30:57;101354.00;;;4.33;55.39
53858;BME280;39763;51.188;6.690;2023-02-26T00:32:29;101358.34;;;4.31;55.89
53858;BME280;39763;51.188;6.690;2023-02-26T00:34:04;101361.78;;;4.20;55.58
53858;BME280;39763;51.188;6.690;2023-02-26T00:35:36;101370.44;;;4.12;56.24
53858;BME280;39763;51.188;6.690;2023-02-26T00:37:11;101372.13;;;4.04;56.51
53858;BME280;39763;51.188;6.690;2023-02-26T00:38:43;101374.72;;;3.98;56.60
53858;BME280;39763;51.188;6.690;2023-02-26T00:40:19;101380.72;;;3.90;56.73
53858;BME280;39763;51.188;6.690;2023-02-26T00:41:52;101375.50;;;3.87;56.81
53858;BME280;39763;51.188;6.690;2023-02-26T00:43:24;101372.06;;;3.90;57.35
53858;BME280;39763;51.188;6.690;2023-02-26T00:44:57;101373.81;;;3.93;57.02
53858;BME280;39763;51.188;6.690;2023-02-26T00:46:33;101385.13;;;3.98;57.10
53858;BME280;39763;51.188;6.690;2023-02-26T00:48:19;101377.31;;;4.01;57.26
53858;BME280;39763;51.188;6.690;2023-02-26T00:50:04;101383.41;;;4.06;57.02
53858;BME280;39763;51.188;6.690;2023-02-26T00:51:38;101379.06;;;4.08;57.22
53858;BME280;39763;51.188;6.690;2023-02-26T00:53:14;101381.69;;;4.08;57.31
53858;BME280;39763;51.188;6.690;2023-02-26T00:54:50;101372.16;;;4.10;57.06
53858;BME280;39763;51.188;6.690;2023-02-26T00:56:22;101373.91;;;4.17;57.21
53858;BME280;39763;51.188;6.690;2023-02-26T00:57:54;101377.41;;;4.25;56.71
53858;BME280;39763;51.188;6.690;2023-02-26T00:59:27;101373.97;;;4.29;57.17
53858;BME280;39763;51.188;6.690;2023-02-26T01:00:59;101385.22;;;4.28;56.55
53858;BME280;39763;51.188;6.690;2023-02-26T01:02:31;101395.63;;;4.33;56.97
53858;BME280;39763;51.188;6.690;2023-02-26T01:04:03;101383.50;;;4.36;56.79
53858;BME280;39763;51.188;6.690;2023-02-26T01:05:36;101380.88;;;4.35;56.76
53858;BME280;39763;51.188;6.690;2023-02-26T01:07:08;101386.09;;;4.33;56.51
53858;BME280;39763;51.188;6.690;2023-02-26T01:08:41;101381.75;;;4.34;56.82
53858;BME280;39763;51.188;6.690;2023-02-26T01:10:16;101367.03;;;4.39;56.89
53858;BME280;39763;51.188;6.690;2023-02-26T01:11:48;101380.06;;;4.48;56.48
53858;BME280;39763;51.188;6.690;2023-02-26T01:13:20;101382.66;;;4.52;56.22
53858;BME280;39763;51.188;6.690;2023-02-26T01:14:52;101376.59;;;4.49;56.09
53858;BME280;39763;51.188;6.690;2023-02-26T01:16:26;101380.91;;;4.39;56.33
53858;BME280;39763;51.188;6.690;2023-02-26T01:17:59;101381.75;;;4.35;56.20
53858;BME280;39763;51.188;6.690;2023-02-26T01:19:38;101393.03;;;4.39;56.10
53858;BME280;39763;51.188;6.690;2023-02-26T01:21:14;101386.97;;;4.38;56.16
53858;BME280;39763;51.188;6.690;2023-02-26T01:22:49;101393.94;;;4.41;56.45
53858;BME280;39763;51.188;6.690;2023-02-26T01:24:22;101397.38;;;4.40;56.06
53858;BME280;39763;51.188;6.690;2023-02-26T01:26:00;101393.91;;;4.36;56.31
53858;BME280;39763;51.188;6.690;2023-02-26T01:27:34;101399.97;;;4.38;56.29
53858;BME280;39763;51.188;6.690;2023-02-26T01:29:06;101406.91;;;4.36;56.31
53858;BME280;39763;51.188;6.690;2023-02-26T01:30:37;101411.22;;;4.28;56.47
53858;BME280;39763;51.188;6.690;2023-02-26T01:32:11;101415.53;;;4.23;56.74
53858;BME280;39763;51.188;6.690;2023-02-26T01:33:50;101408.56;;;4.16;57.07
53858;BME280;39763;51.188;6.690;2023-02-26T01:35:28;101397.31;;;4.12;57.03
53858;BME280;39763;51.188;6.690;2023-02-26T01:37:03;101399.91;;;4.18;57.10
53858;BME280;39763;51.188;6.690;2023-02-26T01:38:39;101397.34;;;4.23;56.97
53858;BME280;39763;51.188;6.690;2023-02-26T01:40:28;101405.13;;;4.20;56.58
53858;BME280;39763;51.188;6.690;2023-02-26T01:42:04;101403.38;;;4.13;56.75
53858;BME280;39763;51.188;6.690;2023-02-26T01:43:43;101411.16;;;4.13;57.16
53858;BME280;39763;51.188;6.690;2023-02-26T01:45:17;101409.41;;;4.10;57.17
53858;BME280;39763;51.188;6.690;2023-02-26T01:46:57;101412.03;;;4.12;57.49
53858;BME280;39763;51.188;6.690;2023-02-26T01:48:34;101406.78;;;4.03;57.45
53858;BME280;39763;51.188;6.690;2023-02-26T01:50:10;101405.03;;;3.97;57.79
53858;BME280;39763;51.188;6.690;2023-02-26T01:51:44;101412.81;;;4.02;57.28
53858;BME280;39763;51.188;6.690;2023-02-26T01:53:20;101416.28;;;3.96;57.85
53858;BME280;39763;51.188;6.690;2023-02-26T01:54:52;101411.06;;;3.95;57.89
53858;BME280;39763;51.188;6.690;2023-02-26T01:56:24;101411.03;;;3.90;57.79
53858;BME280;39763;51.188;6.690;2023-02-26T01:57:56;101412.78;;;3.89;58.19
53858;BME280;39763;51.188;6.690;2023-02-26T01:59:29;101409.31;;;3.92;58.40
53858;BME280;39763;51.188;6.690;2023-02-26T02:01:02;101411.06;;;3.93;58.32
53858;BME280;39763;51.188;6.690;2023-02-26T02:02:33;101419.75;;;3.97;58.17
53858;BME280;39763;51.188;6.690;2023-02-26T02:04:06;101418.03;;;3.99;58.16
53858;BME280;39763;51.188;6.690;2023-02-26T02:05:41;101416.28;;;3.95;58.51
53858;BME280;39763;51.188;6.690;2023-02-26T02:07:14;101421.44;;;3.92;58.58
53858;BME280;39763;51.188;6.690;2023-02-26T02:08:47;101420.56;;;3.89;58.59
53858;BME280;39763;51.188;6.690;2023-02-26T02:10:19;101423.16;;;3.83;58.75
53858;BME280;39763;51.188;6.690;2023-02-26T02:11:58;101426.59;;;3.81;58.79
53858;BME280;39763;51.188;6.690;2023-02-26T02:13:37;101421.34;;;3.75;59.04
53858;BME280;39763;51.188;6.690;2023-02-26T02:15:12;101426.53;;;3.72;58.98
53858;BME280;39763;51.188;6.690;2023-02-26T02:16:46;101429.16;;;3.76;58.85
53858;BME280;39763;51.188;6.690;2023-02-26T02:18:20;101423.94;;;3.72;59.14
53858;BME280;39763;51.188;6.690;2023-02-26T02:21:47;101431.72;;;3.72;59.05
53858;BME280;39763;51.188;6.690;2023-02-26T02:23:22;101431.72;;;3.72;58.77
53858;BME280;39763;51.188;6.690;2023-02-26T02:25:07;101439.53;;;3.70;58.78
53858;BME280;39763;51.188;6.690;2023-02-26T02:26:58;101441.19;;;3.62;59.16
53858;BME280;39763;51.188;6.690;2023-02-26T02:28:34;101432.53;;;3.60;58.96
53858;BME280;39763;51.188;6.690;2023-02-26T02:30:24;101435.09;;;3.57;59.02
53858;BME280;39763;51.188;6.690;2023-02-26T02:32:00;101448.84;;;3.44;59.09
53858;BME280;39763;51.188;6.690;2023-02-26T02:33:35;101442.78;;;3.39;59.51
53858;BME280;39763;51.188;6.690;2023-02-26T02:35:11;101448.84;;;3.42;59.43
53858;BME280;39763;51.188;6.690;2023-02-26T02:36:47;101448.81;;;3.38;59.37
53858;BME280;39763;51.188;6.690;2023-02-26T02:38:20;101448.78;;;3.33;59.63
53858;BME280;39763;51.188;6.690;2023-02-26T02:39:54;101460.03;;;3.34;59.94
53858;BME280;39763;51.188;6.690;2023-02-26T02:41:28;101455.59;;;3.21;60.28
53858;BME280;39763;51.188;6.690;2023-02-26T02:43:03;101463.38;;;3.21;60.47
53858;BME280;39763;51.188;6.690;2023-02-26T02:44:38;101461.56;;;3.13;60.85
53858;BME280;39763;51.188;6.690;2023-02-26T02:46:13;101462.53;;;3.22;60.70
53858;BME280;39763;51.188;6.690;2023-02-26T02:47:49;101465.16;;;3.25;60.55
53858;BME280;39763;51.188;6.690;2023-02-26T02:49:24;101463.41;;;3.24;60.80
53858;BME280;39763;51.188;6.690;2023-02-26T02:50:59;101470.28;;;3.18;60.86
53858;BME280;39763;51.188;6.690;2023-02-26T02:52:32;101469.41;;;3.16;61.19
53858;BME280;39763;51.188;6.690;2023-02-26T02:54:09;101466.78;;;3.15;61.08
53858;BME280;39763;51.188;6.690;2023-02-26T02:55:43;101473.69;;;3.10;61.05
53858;BME280;39763;51.188;6.690;2023-02-26T02:57:18;101474.53;;;3.09;61.08
53858;BME280;39763;51.188;6.690;2023-02-26T02:58:52;101480.59;;;3.09;60.98
53858;BME280;39763;51.188;6.690;2023-02-26T03:00:27;101477.94;;;3.03;61.73
53858;BME280;39763;51.188;6.690;2023-02-26T03:02:03;101479.63;;;3.01;61.54
53858;BME280;39763;51.188;6.690;2023-02-26T03:03:40;101478.78;;;3.02;61.62
53858;BME280;39763;51.188;6.690;2023-02-26T03:05:13;101478.78;;;3.02;61.22
53858;BME280;39763;51.188;6.690;2023-02-26T03:06:45;101484.84;;;3.03;61.41
53858;BME280;39763;51.188;6.690;2023-02-26T03:08:23;101480.53;;;3.05;61.16
53858;BME280;39763;51.188;6.690;2023-02-26T03:09:56;101484.88;;;3.06;61.31
53858;BME280;39763;51.188;6.690;2023-02-26T03:11:28;101492.69;;;3.07;61.18
53858;BME280;39763;51.188;6.690;2023-02-26T03:13:00;101490.94;;;3.06;61.25
53858;BME280;39763;51.188;6.690;2023-02-26T03:14:32;101486.69;;;3.11;60.97
53858;BME280;39763;51.188;6.690;2023-02-26T03:16:11;101490.16;;;3.16;60.95
53858;BME280;39763;51.188;6.690;2023-02-26T03:17:46;101498.03;;;3.24;60.92
53858;BME280;39763;51.188;6.690;2023-02-26T03:19:25;101501.56;;;3.32;60.44
53858;BME280;39763;51.188;6.690;2023-02-26T03:21:03;101493.75;;;3.31;60.07
53858;BME280;39763;51.188;6.690;2023-02-26T03:22:40;101497.19;;;3.25;59.87
53858;BME280;39763;51.188;6.690;2023-02-26T03:24:23;101489.34;;;3.21;59.69
53858;BME280;39763;51.188;6.690;2023-02-26T03:25:57;101492.78;;;3.19;60.03
53858;BME280;39763;51.188;6.690;2023-02-26T03:27:33;101498.84;;;3.20;59.88
53858;BME280;39763;51.188;6.690;2023-02-26T03:29:07;101499.72;;;3.21;59.39
53858;BME280;39763;51.188;6.690;2023-02-26T03:30:43;101497.13;;;3.19;59.70
53858;BME280;39763;51.188;6.690;2023-02-26T03:32:16;101506.69;;;3.25;59.61
53858;BME280;39763;51.188;6.690;2023-02-26T03:33:52;101510.16;;;3.28;59.46
53858;BME280;39763;51.188;6.690;2023-02-26T03:35:28;101511.06;;;3.30;59.47
53858;BME280;39763;51.188;6.690;2023-02-26T03:37:02;101510.19;;;3.31;59.09
53858;BME280;39763;51.188;6.690;2023-02-26T03:38:38;101508.44;;;3.27;59.07
53858;BME280;39763;51.188;6.690;2023-02-26T03:40:12;101519.69;;;3.28;59.20
53858;BME280;39763;51.188;6.690;2023-02-26T03:41:47;101519.69;;;3.28;59.06
53858;BME280;39763;51.188;6.690;2023-02-26T03:43:24;101526.59;;;3.26;59.11
53858;BME280;39763;51.188;6.690;2023-02-26T03:44:58;101527.44;;;3.23;58.89
53858;BME280;39763;51.188;6.690;2023-02-26T03:46:32;101539.50;;;3.18;58.95
53858;BME280;39763;51.188;6.690;2023-02-26T03:48:06;101536.00;;;3.14;58.84
53858;BME280;39763;51.188;6.690;2023-02-26T03:49:40;101533.41;;;3.16;59.12
53858;BME280;39763;51.188;6.690;2023-02-26T03:51:14;101542.06;;;3.15;58.79
53858;BME280;39763;51.188;6.690;2023-02-26T03:52:59;101531.63;;;3.07;59.37
53858;BME280;39763;51.188;6.690;2023-02-26T03:54:50;101541.13;;;3.07;59.21
53858;BME280;39763;51.188;6.690;2023-02-26T03:56:47;101535.03;;;3.05;59.50
53858;BME280;39763;51.188;6.690;2023-02-26T03:58:38;101538.56;;;3.10;59.19
53858;BME280;39763;51.188;6.690;2023-02-26T04:00:28;101538.59;;;3.11;59.41
53858;BME280;39763;51.188;6.690;2023-02-26T04:02:02;101542.88;;;3.09;59.36
53858;BME280;39763;51.188;6.690;2023-02-26T04:03:38;101548.88;;;3.05;59.53
53858;BME280;39763;51.188;6.690;2023-02-26T04:05:13;101543.63;;;3.01;59.39
53858;BME280;39763;51.188;6.690;2023-02-26T04:06:48;101548.81;;;3.01;59.55
53858;BME280;39763;51.188;6.690;2023-02-26T04:08:20;101552.25;;;2.98;59.62
53858;BME280;39763;51.188;6.690;2023-02-26T04:09:52;101550.50;;;2.97;59.86
53858;BME280;39763;51.188;6.690;2023-02-26T04:11:28;101551.41;;;2.96;59.66
53858;BME280;39763;51.188;6.690;2023-02-26T04:13:02;101553.06;;;2.91;60.36
53858;BME280;39763;51.188;6.690;2023-02-26T04:14:35;101552.22;;;2.92;60.21
53858;BME280;39763;51.188;6.690;2023-02-26T04:16:06;101550.41;;;2.87;60.62
53858;BME280;39763;51.188;6.690;2023-02-26T04:17:38;101562.44;;;2.80;60.99
53858;BME280;39763;51.188;6.690;2023-02-26T04:19:11;101554.63;;;2.77;61.47
53858;BME280;39763;51.188;6.690;2023-02-26T04:20:42;101555.44;;;2.74;61.44
53858;BME280;39763;51.188;6.690;2023-02-26T04:22:15;101556.22;;;2.66;61.74
53858;BME280;39763;51.188;6.690;2023-02-26T04:23:47;101562.25;;;2.63;61.97
53858;BME280;39763;51.188;6.690;2023-02-26T04:25:19;101563.91;;;2.60;62.24
53858;BME280;39763;51.188;6.690;2023-02-26T04:26:51;101570.00;;;2.62;62.07
53858;BME280;39763;51.188;6.690;2023-02-26T04:28:22;101567.41;;;2.62;62.10
53858;BME280;39763;51.188;6.690;2023-02-26T04:29:54;101563.06;;;2.61;62.19
53858;BME280;39763;51.188;6.690;2023-02-26T04:31:26;101562.13;;;2.56;62.40
53858;BME280;39763;51.188;6.690;2023-02-26T04:32:57;101567.38;;;2.60;62.29
53858;BME280;39763;51.188;6.690;2023-02-26T04:34:29;101567.38;;;2.60;62.11
53858;BME280;39763;51.188;6.690;2023-02-26T04:36:00;101569.91;;;2.56;62.26
53858;BME280;39763;51.188;6.690;2023-02-26T04:37:33;101575.09;;;2.56;62.16
53858;BME280;39763;51.188;6.690;2023-02-26T04:39:05;101571.59;;;2.51;62.29
53858;BME280;39763;51.188;6.690;2023-02-26T04:40:38;101572.47;;;2.51;62.42
53858;BME280;39763;51.188;6.690;2023-02-26T04:42:10;101575.88;;;2.48;61.99
53858;BME280;39763;51.188;6.690;2023-02-26T04:43:42;101590.59;;;2.50;62.36
53858;BME280;39763;51.188;6.690;2023-02-26T04:45:24;101574.97;;;2.46;62.62
53858;BME280;39763;51.188;6.690;2023-02-26T04:46:56;101590.56;;;2.48;62.52
53858;BME280;39763;51.188;6.690;2023-02-26T04:48:27;101568.88;;;2.43;62.38
53858;BME280;39763;51.188;6.690;2023-02-26T04:49:59;101586.97;;;2.37;63.01
53858;BME280;39763;51.188;6.690;2023-02-26T04:51:31;101592.94;;;2.33;63.17
53858;BME280;39763;51.188;6.690;2023-02-26T04:53:04;101591.28;;;2.36;62.74
53858;BME280;39763;51.188;6.690;2023-02-26T04:54:36;101595.59;;;2.36;63.00
53858;BME280;39763;51.188;6.690;2023-02-26T04:56:08;101596.41;;;2.33;62.99
53858;BME280;39763;51.188;6.690;2023-02-26T04:57:40;101604.22;;;2.36;63.25
53858;BME280;39763;51.188;6.690;2023-02-26T04:59:11;101605.06;;;2.34;63.04
53858;BME280;39763;51.188;6.690;2023-02-26T05:00:46;101602.41;;;2.31;62.58
53858;BME280;39763;51.188;6.690;2023-02-26T05:02:18;101603.16;;;2.24;62.96
53858;BME280;39763;51.188;6.690;2023-02-26T05:03:52;101612.75;;;2.29;63.07
53858;BME280;39763;51.188;6.690;2023-02-26T05:05:24;101607.50;;;2.26;63.45
53858;BME280;39763;51.188;6.690;2023-02-26T05:06:55;101615.28;;;2.26;63.27
53858;BME280;39763;51.188;6.690;2023-02-26T05:08:28;101616.19;;;2.28;62.76
53858;BME280;39763;51.188;6.690;2023-02-26T05:10:00;101611.88;;;2.29;63.28
53858;BME280;39763;51.188;6.690;2023-02-26T05:11:31;101620.44;;;2.22;63.58
53858;BME280;39763;51.188;6.690;2023-02-26T05:13:03;101618.69;;;2.21;63.16
53858;BME280;39763;51.188;6.690;2023-02-26T05:14:35;101628.19;;;2.23;63.68
53858;BME280;39763;51.188;6.690;2023-02-26T05:16:07;101621.31;;;2.22;62.92
53858;BME280;39763;51.188;6.690;2023-02-26T05:17:39;101630.78;;;2.23;63.40
53858;BME280;39763;51.188;6.690;2023-02-26T05:19:11;101630.75;;;2.19;63.55
53858;BME280;39763;51.188;6.690;2023-02-26T05:20:42;101625.63;;;2.22;63.32
53858;BME280;39763;51.188;6.690;2023-02-26T05:22:14;101634.22;;;2.19;63.42
53858;BME280;39763;51.188;6.690;2023-02-26T05:23:47;101637.63;;;2.17;63.27
53858;BME280;39763;51.188;6.690;2023-02-26T05:25:18;101639.31;;;2.15;63.30
53858;BME280;39763;51.188;6.690;2023-02-26T05:26:50;101645.38;;;2.15;63.43
53858;BME280;39763;51.188;6.690;2023-02-26T05:28:22;101634.88;;;2.07;63.34
53858;BME280;39763;51.188;6.690;2023-02-26T05:29:54;101634.06;;;2.11;63.23
53858;BME280;39763;51.188;6.690;2023-02-26T05:31:26;101629.78;;;2.13;62.46
53858;BME280;39763;51.188;6.690;2023-02-26T05:32:57;101643.50;;;2.08;62.28
53858;BME280;39763;51.188;6.690;2023-02-26T05:34:29;101639.19;;;2.07;63.09
53858;BME280;39763;51.188;6.690;2023-02-26T05:36:00;101641.81;;;2.10;62.62
53858;BME280;39763;51.188;6.690;2023-02-26T05:37:32;101638.34;;;2.06;63.09
53858;BME280;39763;51.188;6.690;2023-02-26T05:39:05;101643.50;;;2.08;62.93
53858;BME280;39763;51.188;6.690;2023-02-26T05:40:36;101646.84;;;1.99;62.51
53858;BME280;39763;51.188;6.690;2023-02-26T05:42:08;101650.28;;;2.00;62.34
53858;BME280;39763;51.188;6.690;2023-02-26T05:43:40;101645.16;;;2.03;62.42
53858;BME280;39763;51.188;6.690;2023-02-26T05:45:12;101650.34;;;2.03;63.06
53858;BME280;39763;51.188;6.690;2023-02-26T05:46:43;101648.59;;;2.02;62.47
53858;BME280;39763;51.188;6.690;2023-02-26T05:48:15;101652.06;;;2.02;62.53
53858;BME280;39763;51.188;6.690;2023-02-26T05:49:47;101657.34;;;2.07;62.84
53858;BME280;39763;51.188;6.690;2023-02-26T05:51:18;101660.75;;;2.04;62.31
53858;BME280;39763;51.188;6.690;2023-02-26T05:52:50;101670.19;;;2.01;62.80
53858;BME280;39763;51.188;6.690;2023-02-26T05:54:23;101657.25;;;2.02;62.85
53858;BME280;39763;51.188;6.690;2023-02-26T05:55:55;101661.66;;;2.06;62.51
53858;BME280;39763;51.188;6.690;2023-02-26T05:57:26;101679.84;;;2.11;62.41
53858;BME280;39763;51.188;6.690;2023-02-26T05:58:58;101681.53;;;2.07;62.55
53858;BME280;39763;51.188;6.690;2023-02-26T06:00:29;101686.69;;;2.06;62.38
53858;BME280;39763;51.188;6.690;2023-02-26T06:02:01;101680.69;;;2.10;62.65
53858;BME280;39763;51.188;6.690;2023-02-26T06:03:33;101684.97;;;2.06;61.78
53858;BME280;39763;51.188;6.690;2023-02-26T06:05:05;101676.31;;;2.06;62.38
53858;BME280;39763;51.188;6.690;2023-02-26T06:06:37;101688.44;;;2.10;62.43
53858;BME280;39763;51.188;6.690;2023-02-26T06:08:09;101691.88;;;2.06;62.37
53858;BME280;39763;51.188;6.690;2023-02-26T06:09:44;101696.16;;;2.04;62.59
53858;BME280;39763;51.188;6.690;2023-02-26T06:11:15;101694.41;;;2.03;61.92
53858;BME280;39763;51.188;6.690;2023-02-26T06:12:47;101702.13;;;2.00;62.57
53858;BME280;39763;51.188;6.690;2023-02-26T06:14:19;101699.41;;;1.92;62.63
53858;BME280;39763;51.188;6.690;2023-02-26T06:15:51;101698.53;;;1.92;62.78
53858;BME280;39763;51.188;6.690;2023-02-26T06:17:24;101702.88;;;1.93;62.07
53858;BME280;39763;51.188;6.690;2023-02-26T06:18:55;101696.59;;;1.82;62.40
53858;BME280;39763;51.188;6.690;2023-02-26T06:20:27;101698.34;;;1.83;62.05
53858;BME280;39763;51.188;6.690;2023-02-26T06:21:59;101699.25;;;1.85;62.63
53858;BME280;39763;51.188;6.690;2023-02-26T06:23:30;101701.03;;;1.87;62.31
53858;BME280;39763;51.188;6.690;2023-02-26T06:25:04;101701.84;;;1.85;62.17
53858;BME280;39763;51.188;6.690;2023-02-26T06:26:35;101700.94;;;1.83;62.62
53858;BME280;39763;51.188;6.690;2023-02-26T06:28:07;101704.38;;;1.82;62.02
53858;BME280;39763;51.188;6.690;2023-02-26T06:29:40;101708.72;;;1.83;62.42
53858;BME280;39763;51.188;6.690;2023-02-26T06:31:12;101719.00;;;1.78;62.54
53858;BME280;39763;51.188;6.690;2023-02-26T06:32:43;101731.88;;;1.75;62.11
53858;BME280;39763;51.188;6.690;2023-02-26T06:34:17;101722.44;;;1.78;62.27
53858;BME280;39763;51.188;6.690;2023-02-26T06:35:49;101731.19;;;1.84;62.62
53858;BME280;39763;51.188;6.690;2023-02-26T06:37:21;101733.94;;;1.93;62.63
53858;BME280;39763;51.188;6.690;2023-02-26T06:38:52;101731.38;;;1.96;61.96
53858;BME280;39763;51.188;6.690;2023-02-26T06:40:25;101740.06;;;1.98;61.87
53858;BME280;39763;51.188;6.690;2023-02-26T06:41:57;101746.09;;;1.97;62.13
53858;BME280;39763;51.188;6.690;2023-02-26T06:43:29;101741.75;;;1.96;62.41
53858;BME280;39763;51.188;6.690;2023-02-26T06:45:00;101740.13;;;2.01;61.49
53858;BME280;39763;51.188;6.690;2023-02-26T06:46:32;101750.50;;;2.01;61.52
53858;BME280;39763;51.188;6.690;2023-02-26T06:48:04;101743.56;;;2.00;61.36
53858;BME280;39763;51.188;6.690;2023-02-26T06:49:35;101743.53;;;1.98;61.85
53858;BME280;39763;51.188;6.690;2023-02-26T06:51:07;101741.88;;;2.02;62.10
53858;BME280;39763;51.188;6.690;2023-02-26T06:52:40;101754.91;;;2.05;61.45
53858;BME280;39763;51.188;6.690;2023-02-26T06:54:11;101764.41;;;2.06;61.66
53858;BME280;39763;51.188;6.690;2023-02-26T06:55:44;101757.38;;;1.99;61.22
53858;BME280;39763;51.188;6.690;2023-02-26T06:57:16;101766.88;;;2.00;61.11
53858;BME280;39763;51.188;6.690;2023-02-26T06:58:48;101766.16;;;2.07;61.87
53858;BME280;39763;51.188;6.690;2023-02-26T07:00:20;101763.59;;;2.10;61.02
53858;BME280;39763;51.188;6.690;2023-02-26T07:01:52;101772.38;;;2.17;61.14
53858;BME280;39763;51.188;6.690;2023-02-26T07:03:23;101775.75;;;2.12;60.75
53858;BME280;39763;51.188;6.690;2023-02-26T07:04:55;101776.53;;;2.07;61.63
53858;BME280;39763;51.188;6.690;2023-02-26T07:06:26;101788.59;;;2.06;60.63
53858;BME280;39763;51.188;6.690;2023-02-26T07:07:58;101785.09;;;2.03;60.89
53858;BME280;39763;51.188;6.690;2023-02-26T07:09:30;101780.72;;;2.00;61.62
53858;BME280;39763;51.188;6.690;2023-02-26T07:11:03;101786.81;;;2.04;61.52
53858;BME280;39763;51.188;6.690;2023-02-26T07:12:34;101797.34;;;2.13;61.02
53858;BME280;39763;51.188;6.690;2023-02-26T07:14:06;101803.47;;;2.17;61.43
53858;BME280;39763;51.188;6.690;2023-02-26T07:15:37;101802.59;;;2.16;61.19
53858;BME280;39763;51.188;6.690;2023-02-26T07:17:09;101805.97;;;2.12;60.40
53858;BME280;39763;51.188;6.690;2023-02-26T07:18:41;101807.72;;;2.13;60.71
53858;BME280;39763;51.188;6.690;2023-02-26T07:20:12;101812.97;;;2.16;60.83
53858;BME280;39763;51.188;6.690;2023-02-26T07:21:44;101816.44;;;2.17;61.39
53858;BME280;39763;51.188;6.690;2023-02-26T07:23:16;101822.56;;;2.23;61.01
53858;BME280;39763;51.188;6.690;2023-02-26T07:24:48;101822.72;;;2.31;61.08
53858;BME280;39763;51.188;6.690;2023-02-26T07:26:21;101824.47;;;2.32;60.53
53858;BME280;39763;51.188;6.690;2023-02-26T07:27:53;101828.84;;;2.34;61.14
53858;BME280;39763;51.188;6.690;2023-02-26T07:29:26;101838.47;;;2.41;60.06
53858;BME280;39763;51.188;6.690;2023-02-26T07:30:58;101835.00;;;2.41;60.23
53858;BME280;39763;51.188;6.690;2023-02-26T07:32:30;101831.63;;;2.45;60.16
53858;BME280;39763;51.188;6.690;2023-02-26T07:34:01;101827.38;;;2.48;59.83
53858;BME280;39763;51.188;6.690;2023-02-26T07:35:33;101835.94;;;2.44;59.70
53858;BME280;39763;51.188;6.690;2023-02-26T07:37:05;101846.38;;;2.47;59.49
53858;BME280;39763;51.188;6.690;2023-02-26T07:38:37;101842.84;;;2.44;59.63
53858;BME280;39763;51.188;6.690;2023-02-26T07:40:09;101848.84;;;2.41;59.59
53858;BME280;39763;51.188;6.690;2023-02-26T07:41:42;101843.72;;;2.44;59.84
53858;BME280;39763;51.188;6.690;2023-02-26T07:43:18;101849.81;;;2.46;59.14
53858;BME280;39763;51.188;6.690;2023-02-26T07:44:49;101848.22;;;2.55;59.58
53858;BME280;39763;51.188;6.690;2023-02-26T07:46:21;101854.47;;;2.67;59.50
53858;BME280;39763;51.188;6.690;2023-02-26T07:47:53;101857.19;;;2.73;59.17
53858;BME280;39763;51.188;6.690;2023-02-26T07:49:24;101858.88;;;2.71;58.82
53858;BME280;39763;51.188;6.690;2023-02-26T07:50:56;101850.13;;;2.65;58.42
53858;BME280;39763;51.188;6.690;2023-02-26T07:52:28;101857.00;;;2.63;58.64
53858;BME280;39763;51.188;6.690;2023-02-26T07:53:59;101864.84;;;2.66;58.69
53858;BME280;39763;51.188;6.690;2023-02-26T07:55:31;101863.13;;;2.68;58.51
53858;BME280;39763;51.188;6.690;2023-02-26T07:57:04;101863.34;;;2.78;58.96
53858;BME280;39763;51.188;6.690;2023-02-26T07:58:37;101874.63;;;2.82;58.63
53858;BME280;39763;51.188;6.690;2023-02-26T08:00:09;101871.16;;;2.83;58.26
53858;BME280;39763;51.188;6.690;2023-02-26T08:01:44;101878.22;;;2.90;58.76
53858;BME280;39763;51.188;6.690;2023-02-26T08:03:15;101872.41;;;3.05;59.21
53858;BME280;39763;51.188;6.690;2023-02-26T08:04:47;101878.69;;;3.19;58.76
53858;BME280;39763;51.188;6.690;2023-02-26T08:06:18;101881.38;;;3.24;57.74
53858;BME280;39763;51.188;6.690;2023-02-26T08:07:50;101875.44;;;3.34;58.13
53858;BME280;39763;51.188;6.690;2023-02-26T08:09:21;101882.53;;;3.45;57.72
53858;BME280;39763;51.188;6.690;2023-02-26T08:10:53;101880.00;;;3.50;57.53
53858;BME280;39763;51.188;6.690;2023-02-26T08:12:26;101877.47;;;3.53;57.12
53858;BME280;39763;51.188;6.690;2023-02-26T08:13:58;101891.31;;;3.52;56.80
53858;BME280;39763;51.188;6.690;2023-02-26T08:15:30;101886.19;;;3.60;57.22
53858;BME280;39763;51.188;6.690;2023-02-26T08:17:02;101885.53;;;3.74;57.31
53858;BME280;39763;51.188;6.690;2023-02-26T08:18:33;101877.94;;;3.89;57.16